Time;durP1;ratioP1;P1;durP2;ratioP2;P2;SDS_P1;SDS_P2;PMS_P1;PMS_P2;Temp;Humidity;BMP_temperature;BMP_pressure;BME280_temperature;BME280_humidity;BME280_pressure;Samples;Min_cycle;Max_cycle;Signal;HPM_P1;HPM_P2
2021/08/02 00:00:10;;;;;;;8.80;7.90;;;;;;;16.44;75.77;99567.09;128587;1095;24953;-77
2021/08/02 00:03:29;;;;;;;8.95;8.00;;;;;;;16.42;76.01;99571.83;128311;1095;22416;-77
2021/08/02 00:06:02;;;;;;;9.13;7.93;;;;;;;16.42;75.98;99577.16;128009;1098;22378;-77
2021/08/02 00:09:10;;;;;;;12.00;8.75;;;;;;;16.43;75.95;99586.80;128172;1096;24301;-77
2021/08/02 00:11:50;;;;;;;9.70;7.58;;;;;;;16.42;75.98;99587.82;128192;1098;22365;-78
2021/08/02 00:14:22;;;;;;;8.63;7.63;;;;;;;16.43;76.34;99588.66;127997;1098;22411;-78
2021/08/02 00:16:53;;;;;;;9.27;8.07;;;;;;;16.43;76.19;99594.80;128021;1098;22357;-77
2021/08/02 00:19:25;;;;;;;10.33;8.63;;;;;;;16.43;76.20;99591.33;128041;1098;23265;-77
2021/08/02 00:21:55;;;;;;;10.15;8.25;;;;;;;16.42;75.90;99585.16;127974;1098;24543;-77
2021/08/02 00:24:26;;;;;;;11.30;8.73;;;;;;;16.42;76.16;99595.81;127990;1098;22366;-77
2021/08/02 00:26:57;;;;;;;10.88;8.33;;;;;;;16.41;76.06;99588.86;127988;1098;22376;-77
2021/08/02 00:29:30;;;;;;;10.75;9.25;;;;;;;16.41;76.39;99598.72;127968;1098;22366;-77
2021/08/02 00:32:02;;;;;;;9.13;8.25;;;;;;;16.39;76.23;99585.63;128163;1098;22384;-77
2021/08/02 00:34:31;;;;;;;;;;;;;;;16.33;76.37;99583.86;127998;1098;24249;-77
2021/08/02 00:37:06;;;;;;;9.98;8.18;;;;;;;16.30;76.76;99586.97;128146;1098;21260;-77
2021/08/02 00:39:55;;;;;;;10.60;9.20;;;;;;;16.32;76.61;99587.54;127982;1098;22378;-77
2021/08/02 00:42:59;;;;;;;13.63;10.03;;;;;;;16.33;77.02;99585.71;128160;1098;22385;-77
2021/08/02 00:45:32;;;;;;;11.50;9.68;;;;;;;16.33;76.66;99588.38;128572;1095;22363;-76
2021/08/02 00:48:27;;;;;;;15.00;10.67;;;;;;;16.33;77.02;99585.71;128623;1095;22365;-77
2021/08/02 00:51:02;;;;;;;10.88;9.60;;;;;;;16.33;77.01;99583.86;128600;1095;22382;-79
2021/08/02 00:53:34;;;;;;;11.05;9.85;;;;;;;16.34;77.19;99585.47;128308;1095;22343;-79
2021/08/02 00:56:05;;;;;;;12.58;10.10;;;;;;;16.35;76.98;99571.10;128612;1095;22830;-78
2021/08/02 00:58:36;;;;;;;11.30;10.13;;;;;;;16.37;76.94;99574.37;128258;1095;22343;-78
2021/08/02 01:01:07;;;;;;;;;;;;;;;16.32;76.96;99574.21;128249;1095;22346;-77
2021/08/02 01:03:40;;;;;;;10.53;9.53;;;;;;;16.30;77.31;99572.83;128578;1094;21253;-78
2021/08/02 01:06:11;;;;;;;12.75;10.95;;;;;;;16.32;77.28;99573.41;128602;1094;22360;-78
2021/08/02 01:08:41;;;;;;;15.28;10.73;;;;;;;16.34;77.21;99568.67;128552;1095;22343;-78
2021/08/02 01:11:12;;;;;;;11.13;10.00;;;;;;;16.34;77.23;99574.00;128570;1095;22375;-78
2021/08/02 01:13:44;;;;;;;15.78;10.38;;;;;;;16.35;77.25;99578.28;128280;1095;22356;-77
2021/08/02 01:16:15;;;;;;;11.63;9.70;;;;;;;16.34;77.23;99576.67;128291;1095;22344;-79
2021/08/02 01:18:47;;;;;;;10.93;9.93;;;;;;;16.35;77.45;99580.95;128551;1095;23310;-78
2021/08/02 01:21:20;;;;;;;10.83;9.27;;;;;;;16.35;77.24;99572.95;128256;1095;24040;-78
2021/08/02 01:23:53;;;;;;;11.93;10.73;;;;;;;16.34;77.76;99577.48;128280;1095;22360;-77
2021/08/02 01:26:59;;;;;;;12.00;10.60;;;;;;;16.32;77.33;99582.20;128311;1093;22362;-77
2021/08/02 01:30:12;;;;;;;15.88;10.98;;;;;;;16.29;77.47;99573.84;128165;1098;25106;-78
2021/08/02 01:32:46;;;;;;;12.10;10.85;;;;;;;16.26;77.38;99585.80;127954;1098;22357;-78
2021/08/02 01:35:18;;;;;;;12.48;11.20;;;;;;;16.24;77.66;99575.34;127986;1098;22367;-78
2021/08/02 01:37:48;;;;;;;14.85;10.23;;;;;;;16.25;77.47;99573.48;127918;1098;22396;-78
2021/08/02 01:40:21;;;;;;;11.13;10.05;;;;;;;16.24;77.64;99571.86;128010;1098;22353;-78
2021/08/02 01:42:51;;;;;;;11.57;10.13;;;;;;;16.22;77.50;99576.59;127921;1101;22408;-76
2021/08/02 01:45:25;;;;;;;19.88;11.03;;;;;;;16.20;77.71;99579.50;127897;1100;22413;-78
2021/08/02 01:48:20;;;;;;;11.80;10.70;;;;;;;16.18;77.36;99572.75;127893;1101;25029;-77
2021/08/02 01:51:40;;;;;;;13.00;10.20;;;;;;;16.17;77.50;99574.61;127887;1101;22405;-77
2021/08/02 01:54:53;;;;;;;11.33;10.40;;;;;;;16.13;77.88;99573.44;127911;1101;22399;-77
2021/08/02 01:57:42;;;;;;;11.68;9.73;;;;;;;16.10;77.76;99579.20;127909;1101;22394;-77
2021/08/02 02:00:24;;;;;;;11.98;10.78;;;;;;;16.10;77.90;99575.73;127942;1097;22379;-77
2021/08/02 02:03:08;;;;;;;10.25;9.40;;;;;;;16.10;77.94;99583.72;127957;1098;22405;-79
2021/08/02 02:06:02;;;;;;;11.53;10.33;;;;;;;16.10;77.86;99587.20;128295;1095;22368;-78
2021/08/02 02:08:44;;;;;;;12.15;11.03;;;;;;;16.10;78.24;99586.39;128317;1095;24519;-78
2021/08/02 02:11:21;;;;;;;10.70;9.73;;;;;;;16.10;78.19;99589.86;128282;1095;22347;-79
2021/08/02 02:14:01;;;;;;;11.58;10.48;;;;;;;16.09;77.96;99588.21;128268;1095;22347;-77
2021/08/02 02:16:37;;;;;;;13.90;11.73;;;;;;;16.08;77.86;99586.59;128303;1095;22345;-77
2021/08/02 02:19:10;;;;;;;11.77;10.77;;;;;;;16.08;78.15;99599.11;128636;1095;22351;-78
2021/08/02 02:21:40;;;;;;;12.33;11.03;;;;;;;16.07;78.12;99595.63;128515;1095;23905;-78
2021/08/02 02:24:12;;;;;;;12.20;10.75;;;;;;;16.06;78.25;99601.16;128297;1095;23795;-78
2021/08/02 02:26:46;;;;;;;13.33;10.25;;;;;;;16.03;77.94;99593.61;128275;1095;24582;-78
2021/08/02 02:29:18;;;;;;;11.05;9.90;;;;;;;16.02;78.11;99592.00;128288;1095;22333;-78
2021/08/02 02:31:49;;;;;;;11.75;9.88;;;;;;;16.00;77.88;99601.03;128389;1095;25008;-78
2021/08/02 02:34:20;;;;;;;11.90;10.80;;;;;;;15.98;78.11;99599.62;128302;1094;22382;-77
2021/08/02 02:36:52;;;;;;;13.35;9.90;;;;;;;15.96;77.99;99604.34;128260;1095;22347;-78
2021/08/02 02:39:24;;;;;;;;;;;;;;;15.91;77.93;99618.33;128402;1095;22343;-77
2021/08/02 02:41:55;;;;;;;12.60;10.20;;;;;;;15.86;78.42;99620.86;128300;1095;22986;-77
2021/08/02 02:44:26;;;;;;;11.63;10.50;;;;;;;15.87;78.23;99619.00;128379;1095;22365;-76
2021/08/02 02:46:58;;;;;;;11.83;10.53;;;;;;;15.87;78.41;99619.00;128290;1095;22346;-77
2021/08/02 02:49:30;;;;;;;10.23;9.30;;;;;;;15.87;78.31;99625.14;128317;1095;22331;-77
2021/08/02 02:52:02;;;;;;;12.93;10.60;;;;;;;15.84;78.46;99625.58;128283;1095;22340;-78
2021/08/02 02:54:32;;;;;;;;;;;;;;;15.78;78.13;99629.11;128275;1095;22379;-77
2021/08/02 02:57:04;;;;;;;11.05;9.98;;;;;;;15.74;78.26;99633.26;128273;1095;21254;-77
2021/08/02 02:59:34;;;;;;;14.58;10.10;;;;;;;15.74;78.17;99627.93;128259;1095;22365;-77
2021/08/02 03:02:05;;;;;;;11.30;10.13;;;;;;;15.73;78.39;99631.64;128239;1095;22354;-79
2021/08/02 03:04:40;;;;;;;14.05;11.75;;;;;;;15.72;78.33;99628.13;128594;1095;22342;-78
2021/08/02 03:07:14;;;;;;;12.78;10.88;;;;;;;15.70;78.42;99627.55;128593;1095;24246;-77
2021/08/02 03:09:48;;;;;;;12.48;10.68;;;;;;;15.71;78.38;99631.03;128590;1095;24516;-78
2021/08/02 03:12:18;;;;;;;12.95;11.65;;;;;;;15.71;78.37;99634.50;128257;1095;22442;-77
2021/08/02 03:14:47;;;;;;;13.15;10.28;;;;;;;15.72;78.56;99637.97;128275;1095;22343;-77
2021/08/02 03:17:17;;;;;;;11.80;10.05;;;;;;;15.71;78.56;99634.50;128237;1095;22400;-77
2021/08/02 03:19:47;;;;;;;11.38;10.20;;;;;;;15.70;78.53;99643.53;128226;1095;24509;-78
2021/08/02 03:22:37;;;;;;;11.53;10.43;;;;;;;15.70;78.41;99640.87;128297;1095;24503;-77
2021/08/02 03:25:11;;;;;;;11.55;10.45;;;;;;;15.69;78.20;99646.39;128590;1095;22793;-77
2021/08/02 03:28:16;;;;;;;12.25;11.00;;;;;;;15.69;78.68;99649.06;128567;1095;22358;-77
2021/08/02 03:30:50;;;;;;;12.60;11.43;;;;;;;15.67;78.75;99649.29;127927;1098;22828;-77
2021/08/02 03:33:33;;;;;;;13.00;11.18;;;;;;;15.69;78.76;99652.56;127975;1097;22406;-77
2021/08/02 03:36:14;;;;;;;11.98;10.78;;;;;;;15.70;78.78;99648.05;128212;1098;22440;-78
2021/08/02 03:38:51;;;;;;;11.38;10.25;;;;;;;15.70;78.72;99654.18;128003;1098;23523;-79
2021/08/02 03:41:22;;;;;;;12.35;10.50;;;;;;;15.72;78.84;99651.28;127984;1098;22507;-78
2021/08/02 03:43:53;;;;;;;13.03;11.77;;;;;;;15.72;78.54;99657.42;127998;1098;22375;-78
2021/08/02 03:46:23;;;;;;;14.60;10.18;;;;;;;15.73;78.64;99660.92;127935;1097;22536;-78
2021/08/02 03:48:54;;;;;;;13.17;10.97;;;;;;;15.72;78.53;99664.60;128153;1097;24281;-77
2021/08/02 03:51:24;;;;;;;11.20;10.10;;;;;;;15.71;78.37;99663.80;128195;1098;24106;-78
2021/08/02 03:53:53;;;;;;;12.15;10.93;;;;;;;15.72;78.56;99668.08;128022;1098;25059;-79
2021/08/02 03:56:23;;;;;;;14.48;10.95;;;;;;;15.72;78.48;99670.73;128200;1098;22381;-79
2021/08/02 03:58:52;;;;;;;12.33;11.23;;;;;;;15.72;78.51;99670.73;128027;1098;23667;-78
2021/08/02 04:01:22;;;;;;;12.60;11.50;;;;;;;15.73;78.35;99666.25;128195;1098;24243;-78
2021/08/02 04:03:52;;;;;;;15.85;11.85;;;;;;;15.71;78.31;99671.78;128209;1098;22713;-79
2021/08/02 04:06:21;;;;;;;13.50;12.38;;;;;;;15.71;78.19;99681.62;128181;1098;24253;-79
2021/08/02 04:08:51;;;;;;;12.93;11.73;;;;;;;15.71;78.29;99681.62;128193;1095;22355;-78
2021/08/02 04:11:20;;;;;;;12.95;11.68;;;;;;;15.72;78.41;99677.91;128322;1095;22366;-79
2021/08/02 04:13:50;;;;;;;13.75;12.30;;;;;;;15.73;78.48;99687.55;128287;1095;22360;-79
2021/08/02 04:16:19;;;;;;;13.38;12.20;;;;;;;15.77;78.57;99694.07;128579;1095;22342;-78
2021/08/02 04:18:50;;;;;;;14.95;12.05;;;;;;;15.78;78.44;99687.70;128641;1094;22350;-78
2021/08/02 04:21:19;;;;;;;12.60;11.50;;;;;;;15.81;78.33;99694.45;128296;1095;22355;-78
2021/08/02 04:23:49;;;;;;;12.18;10.98;;;;;;;15.83;78.20;99701.19;128576;1095;22374;-78
2021/08/02 04:26:22;;;;;;;13.70;12.60;;;;;;;15.86;78.19;99703.42;128295;1095;22352;-78
2021/08/02 04:28:56;;;;;;;13.55;12.13;;;;;;;15.90;78.21;99715.27;128707;1093;22356;-78
2021/08/02 04:31:30;;;;;;;11.58;10.40;;;;;;;15.92;78.10;99709.70;128622;1095;22359;-78
2021/08/02 04:34:04;;;;;;;11.63;10.63;;;;;;;15.95;78.21;99711.94;128604;1095;22382;-78
2021/08/02 04:36:34;;;;;;;12.25;10.30;;;;;;;15.99;77.93;99718.45;128593;1095;24533;-79
2021/08/02 04:39:04;;;;;;;12.38;11.15;;;;;;;16.02;78.12;99717.20;128591;1095;22356;-77
2021/08/02 04:41:33;;;;;;;11.58;10.45;;;;;;;16.05;78.08;99722.10;128653;1093;22376;-77
2021/08/02 04:44:03;;;;;;;12.73;9.80;;;;;;;16.07;78.04;99726.18;128634;1095;25011;-78
2021/08/02 04:46:33;;;;;;;11.68;10.68;;;;;;;16.09;77.88;99725.95;128626;1095;22361;-78
2021/08/02 04:49:03;;;;;;;13.63;10.43;;;;;;;16.11;77.94;99730.03;128558;1093;22362;-77
2021/08/02 04:51:32;;;;;;;11.45;10.03;;;;;;;16.14;78.04;99739.45;128634;1095;22359;-78
2021/08/02 04:54:02;;;;;;;13.43;10.87;;;;;;;16.17;77.76;99737.16;128650;1095;22323;-78
2021/08/02 04:56:32;;;;;;;12.28;10.33;;;;;;;16.21;77.81;99746.33;128580;1095;24486;-78
2021/08/02 04:59:02;;;;;;;11.98;10.40;;;;;;;16.21;77.56;99741.00;128595;1095;22355;-78
2021/08/02 05:01:31;;;;;;;10.95;9.85;;;;;;;16.25;77.52;99749.38;128322;1095;22357;-78
2021/08/02 05:04:01;;;;;;;11.98;10.68;;;;;;;16.28;77.81;99750.80;128306;1095;22362;-79
2021/08/02 05:06:30;;;;;;;11.90;10.23;;;;;;;16.29;77.70;99753.22;128580;1095;22380;-79
2021/08/02 05:09:00;;;;;;;10.63;9.50;;;;;;;16.32;77.44;99749.31;128278;1095;22368;-78
2021/08/02 05:11:30;;;;;;;11.20;10.08;;;;;;;16.36;77.55;99756.67;128553;1095;22353;-77
2021/08/02 05:13:59;;;;;;;11.83;10.63;;;;;;;16.41;77.26;99756.00;128261;1095;22800;-78
2021/08/02 05:16:29;;;;;;;11.25;10.13;;;;;;;16.43;77.54;99757.41;128245;1095;22344;-77
2021/08/02 05:18:58;;;;;;;13.35;10.83;;;;;;;16.46;77.37;99764.97;128270;1095;22359;-77
2021/08/02 05:21:28;;;;;;;15.33;9.55;;;;;;;16.51;77.03;99766.97;128542;1093;22361;-77
2021/08/02 05:23:57;;;;;;;11.13;10.10;;;;;;;16.52;76.95;99765.92;128616;1095;22360;-78
2021/08/02 05:26:27;;;;;;;10.65;9.78;;;;;;;16.54;76.74;99769.19;128296;1095;22794;-78
2021/08/02 05:28:56;;;;;;;10.93;9.95;;;;;;;16.56;76.87;99769.80;128565;1095;24237;-77
2021/08/02 05:31:26;;;;;;;10.43;9.43;;;;;;;16.59;76.75;99773.85;128576;1095;22680;-77
2021/08/02 05:33:56;;;;;;;11.55;10.05;;;;;;;16.60;76.73;99778.17;128558;1095;22442;-77
2021/08/02 05:36:25;;;;;;;12.20;10.50;;;;;;;16.61;76.66;99766.46;128579;1095;22318;-77
2021/08/02 05:38:55;;;;;;;12.20;11.00;;;;;;;16.62;76.48;99776.08;128291;1095;22343;-78
2021/08/02 05:41:24;;;;;;;12.83;11.50;;;;;;;16.65;76.38;99772.97;128588;1095;22346;-77
2021/08/02 05:43:54;;;;;;;11.93;10.93;;;;;;;16.67;76.69;99773.58;128327;1093;24236;-77
2021/08/02 05:46:28;;;;;;;13.00;11.73;;;;;;;16.70;76.57;99773.95;128613;1095;22339;-77
2021/08/02 05:48:58;;;;;;;11.95;10.25;;;;;;;16.78;76.82;99766.72;128355;1094;22792;-77
2021/08/02 05:51:27;;;;;;;11.55;10.68;;;;;;;16.84;76.65;99771.97;128538;1095;23094;-77
2021/08/02 05:53:57;;;;;;;13.35;10.95;;;;;;;16.92;76.50;99781.52;128557;1095;25088;-77
2021/08/02 05:56:27;;;;;;;15.28;11.65;;;;;;;16.97;76.52;99779.02;128290;1095;22360;-77
2021/08/02 05:58:57;;;;;;;13.13;10.85;;;;;;;17.05;76.34;99777.89;128619;1093;22384;-77
2021/08/02 06:01:26;;;;;;;14.78;11.70;;;;;;;17.10;76.09;99778.85;128298;1095;22359;-77
2021/08/02 06:03:56;;;;;;;11.80;10.90;;;;;;;17.15;75.78;99783.51;128279;1095;24466;-77
2021/08/02 06:06:26;;;;;;;13.47;11.80;;;;;;;17.19;75.42;99779.34;128629;1093;22411;-78
2021/08/02 06:08:55;;;;;;;11.98;10.83;;;;;;;17.22;75.34;99786.09;128287;1095;22345;-79
2021/08/02 06:11:25;;;;;;;11.93;10.93;;;;;;;17.24;75.14;99786.70;128644;1094;22348;-77
2021/08/02 06:13:54;;;;;;;13.58;12.20;;;;;;;17.25;75.14;99785.64;128575;1095;22362;-78
2021/08/02 06:16:24;;;;;;;11.80;10.80;;;;;;;17.29;75.15;99789.48;128623;1095;22705;-78
2021/08/02 06:19:05;;;;;;;11.35;10.35;;;;;;;17.32;74.97;99789.85;128580;1095;24509;-78
2021/08/02 06:21:35;;;;;;;11.43;10.60;;;;;;;17.35;74.58;99785.92;128537;1093;22364;-77
2021/08/02 06:24:05;;;;;;;11.03;10.00;;;;;;;17.36;74.75;99791.05;128597;1095;22359;-77
2021/08/02 06:26:36;;;;;;;11.18;10.18;;;;;;;17.39;74.45;99800.44;128653;1093;22339;-77
2021/08/02 06:29:06;;;;;;;;;;;;;;;17.38;74.29;99804.97;128394;1095;22353;-77
2021/08/02 06:31:35;;;;;;;11.50;10.50;;;;;;;17.37;74.54;99808.69;128591;1095;21510;-77
2021/08/02 06:34:05;;;;;;;12.43;11.10;;;;;;;17.43;74.45;99811.48;128563;1095;24568;-79
2021/08/02 06:36:35;;;;;;;11.10;10.18;;;;;;;17.48;74.46;99820.45;128605;1095;22356;-77
2021/08/02 06:39:05;;;;;;;16.25;10.95;;;;;;;17.54;73.86;99813.41;128605;1094;22349;-78
2021/08/02 06:41:34;;;;;;;10.50;9.47;;;;;;;17.54;73.62;99822.23;128258;1093;22351;-79
2021/08/02 06:44:04;;;;;;;9.85;8.85;;;;;;;17.55;73.57;99821.17;128564;1093;22355;-79
2021/08/02 06:46:34;;;;;;;11.30;10.18;;;;;;;17.55;73.21;99834.53;128603;1095;22632;-78
2021/08/02 06:49:03;;;;;;;11.45;10.20;;;;;;;17.60;73.29;99825.86;128550;1095;22344;-78
2021/08/02 06:51:33;;;;;;;10.15;9.33;;;;;;;17.66;73.17;99822.28;128440;1095;24495;-79
2021/08/02 06:54:03;;;;;;;9.93;9.00;;;;;;;17.67;72.52;99828.44;128577;1095;22444;-79
2021/08/02 06:56:33;;;;;;;9.65;8.75;;;;;;;17.64;72.59;99825.17;128554;1095;22446;-78
2021/08/02 06:59:02;;;;;;;8.97;8.17;;;;;;;17.69;72.60;99823.66;128652;1095;22358;-79
2021/08/02 07:01:32;;;;;;;7.98;7.38;;;;;;;17.74;72.32;99826.48;128591;1095;24461;-77
2021/08/02 07:04:03;;;;;;;13.03;8.80;;;;;;;17.80;72.51;99830.95;128621;1095;22343;-78
2021/08/02 07:06:33;;;;;;;8.58;7.88;;;;;;;17.88;72.23;99830.61;128279;1095;22345;-78
2021/08/02 07:09:02;;;;;;;8.20;7.47;;;;;;;17.96;72.33;99834.81;128294;1095;24683;-77
2021/08/02 07:11:32;;;;;;;8.18;7.43;;;;;;;18.04;71.84;99834.50;128308;1095;22385;-78
2021/08/02 07:14:01;;;;;;;8.20;7.50;;;;;;;18.10;71.27;99830.91;128574;1095;22344;-78
2021/08/02 07:16:31;;;;;;;7.55;6.95;;;;;;;18.18;71.08;99841.26;128605;1095;22358;-78
2021/08/02 07:19:01;;;;;;;8.05;7.33;;;;;;;18.24;70.79;99839.53;128349;1095;22359;-78
2021/08/02 07:21:30;;;;;;;8.20;7.50;;;;;;;18.28;70.95;99838.83;128578;1095;24485;-78
2021/08/02 07:24:00;;;;;;;11.10;7.58;;;;;;;18.33;70.53;99846.17;128273;1095;24509;-78
2021/08/02 07:26:29;;;;;;;11.37;8.70;;;;;;;18.39;70.55;99845.23;128327;1095;22328;-78
2021/08/02 07:29:01;;;;;;;12.60;7.98;;;;;;;18.46;70.02;99837.09;128569;1095;22357;-78
2021/08/02 07:31:31;;;;;;;8.53;7.05;;;;;;;18.55;69.87;99844.55;128365;1093;22354;-78
2021/08/02 07:34:01;;;;;;;8.83;8.00;;;;;;;18.66;69.77;99845.61;128299;1095;22332;-78
2021/08/02 07:36:32;;;;;;;13.98;8.20;;;;;;;18.73;69.33;99843.66;128599;1095;22366;-79
2021/08/02 07:39:01;;;;;;;10.98;7.30;;;;;;;18.77;68.81;99850.16;128280;1095;23191;-78
2021/08/02 07:41:31;;;;;;;9.43;7.78;;;;;;;18.88;68.79;99855.73;128309;1094;22340;-78
2021/08/02 07:44:00;;;;;;;10.98;7.03;;;;;;;18.99;68.41;99854.90;128618;1093;22356;-79
2021/08/02 07:46:31;;;;;;;7.10;6.40;;;;;;;19.02;67.93;99852.56;128330;1095;22348;-78
2021/08/02 07:49:00;;;;;;;6.87;6.17;;;;;;;19.04;67.45;99850.48;128599;1095;22369;-79
2021/08/02 07:51:31;;;;;;;7.40;6.63;;;;;;;19.07;66.92;99864.45;128699;1094;22795;-78
2021/08/02 07:54:02;;;;;;;22.78;10.00;;;;;;;19.11;66.70;99861.06;128299;1093;24236;-79
2021/08/02 07:56:33;;;;;;;24.53;11.48;;;;;;;19.16;66.38;99866.53;128612;1095;22366;-77
2021/08/02 07:59:03;;;;;;;49.35;21.53;;;;;;;19.16;66.14;99873.73;128358;1095;22360;-77
2021/08/02 08:01:32;;;;;;;6.75;4.88;;;;;;;19.25;65.95;99875.00;128366;1095;22355;-78
2021/08/02 08:04:03;;;;;;;7.28;4.80;;;;;;;19.35;65.71;99888.59;128296;1095;22344;-78
2021/08/02 08:06:32;;;;;;;5.58;3.93;;;;;;;19.43;64.94;99885.56;128313;1095;22359;-78
2021/08/02 08:09:02;;;;;;;7.20;5.03;;;;;;;19.48;64.50;99885.66;128632;1095;24225;-79
2021/08/02 08:11:32;;;;;;;5.23;4.73;;;;;;;19.50;63.83;99896.95;128643;1095;24151;-79
2021/08/02 08:14:02;;;;;;;6.50;5.00;;;;;;;19.55;64.74;99885.52;128337;1093;23017;-78
2021/08/02 08:16:32;;;;;;;5.75;5.23;;;;;;;19.68;64.64;99887.95;128575;1095;22377;-78
2021/08/02 08:19:01;;;;;;;5.63;5.08;;;;;;;19.85;64.46;99887.19;128617;1095;22357;-78
2021/08/02 08:21:35;;;;;;;5.53;5.03;;;;;;;20.17;64.27;99893.67;128588;1095;22343;-78
2021/08/02 08:24:06;;;;;;;6.85;4.95;;;;;;;20.47;63.42;99897.11;128752;1094;22362;-76
2021/08/02 08:26:35;;;;;;;5.43;4.93;;;;;;;20.62;62.19;99898.17;128325;1095;22343;-77
2021/08/02 08:29:06;;;;;;;5.95;5.30;;;;;;;20.63;61.30;99905.19;128320;1095;22139;-77
2021/08/02 08:31:35;;;;;;;6.78;5.88;;;;;;;20.68;61.05;99899.88;128651;1095;22389;-78
2021/08/02 08:34:05;;;;;;;5.35;4.85;;;;;;;20.76;60.64;99906.73;128608;1095;22361;-78
2021/08/02 08:36:35;;;;;;;7.15;4.53;;;;;;;20.86;60.29;99904.20;128639;1095;25011;-78
2021/08/02 08:39:05;;;;;;;8.40;5.50;;;;;;;20.98;59.52;99900.59;128315;1093;22356;-78
2021/08/02 08:41:35;;;;;;;8.03;5.55;;;;;;;21.09;59.72;99905.87;128716;1095;24485;-78
2021/08/02 08:44:05;;;;;;;6.20;4.95;;;;;;;21.14;58.70;99900.55;128378;1095;24505;-78
2021/08/02 08:46:36;;;;;;;13.68;7.28;;;;;;;21.21;59.21;99916.48;128695;1093;22350;-78
2021/08/02 08:49:06;;;;;;;5.85;5.25;;;;;;;21.26;58.55;99918.41;128498;1095;22358;-78
2021/08/02 08:51:39;;;;;;;9.05;5.90;;;;;;;21.25;58.37;99908.73;128296;1095;22368;-77
2021/08/02 08:54:09;;;;;;;8.25;5.98;;;;;;;21.29;58.37;99902.64;128342;1095;22384;-77
2021/08/02 08:56:39;;;;;;;6.13;5.30;;;;;;;21.39;58.93;99915.39;128606;1095;22334;-77
2021/08/02 08:59:13;;;;;;;5.25;3.95;;;;;;;21.45;58.24;99917.08;128259;1094;22357;-78
2021/08/02 09:01:43;;;;;;;4.83;3.50;;;;;;;21.47;57.42;99923.03;128312;1095;23231;-77
2021/08/02 09:04:13;;;;;;;8.73;3.63;;;;;;;21.47;57.27;99925.72;128258;1095;22347;-77
2021/08/02 09:06:50;;;;;;;5.35;3.45;;;;;;;21.47;56.95;99920.34;128605;1095;24492;-77
2021/08/02 09:09:29;;;;;;;6.33;3.38;;;;;;;21.38;56.75;99927.21;128613;1095;22347;-77
2021/08/02 09:12:14;;;;;;;7.15;3.70;;;;;;;21.35;56.95;99922.33;128713;1095;22361;-78
2021/08/02 09:14:55;;;;;;;6.30;3.15;;;;;;;21.36;56.82;99922.09;128586;1093;22363;-77
2021/08/02 09:17:33;;;;;;;4.23;3.20;;;;;;;21.38;56.66;99917.27;128293;1095;22459;-79
2021/08/02 09:20:21;;;;;;;3.28;2.60;;;;;;;21.33;56.03;99922.56;128640;1095;22344;-77
2021/08/02 09:22:53;;;;;;;4.55;2.08;;;;;;;21.28;56.08;99929.73;128561;1095;22352;-77
2021/08/02 09:25:25;;;;;;;3.13;2.20;;;;;;;21.22;56.08;99938.78;128688;1095;22347;-82
2021/08/02 09:27:54;;;;;;;4.28;2.60;;;;;;;21.15;55.71;99941.64;128296;1095;22356;-76
2021/08/02 09:30:27;;;;;;;5.75;2.83;;;;;;;21.08;55.68;99946.38;128595;1095;22344;-73
2021/08/02 09:33:04;;;;;;;3.13;2.60;;;;;;;21.00;56.03;99939.56;128257;1095;23128;-76
2021/08/02 09:35:39;;;;;;;3.45;3.15;;;;;;;20.91;56.65;99935.66;128349;1095;23103;-76
2021/08/02 09:38:12;;;;;;;6.63;3.43;;;;;;;20.81;56.30;99938.20;128272;1095;22347;-77
2021/08/02 09:40:55;;;;;;;3.88;2.45;;;;;;;20.76;56.75;99943.47;128598;1095;22359;-78
2021/08/02 09:43:30;;;;;;;4.90;3.33;;;;;;;20.86;57.28;99941.78;128440;1095;22343;-83
2021/08/02 09:46:09;;;;;;;3.50;3.20;;;;;;;21.18;58.31;99941.16;128486;1095;22794;-77
2021/08/02 09:48:39;;;;;;;7.75;3.15;;;;;;;21.66;57.98;99939.67;128643;1095;22364;-77
2021/08/02 09:51:18;;;;;;;5.68;3.15;;;;;;;22.05;56.47;99939.54;128779;1095;24466;-80
2021/08/02 09:53:54;;;;;;;3.33;3.00;;;;;;;22.17;54.94;99936.73;128523;1095;22358;-77
2021/08/02 09:56:25;;;;;;;4.80;2.73;;;;;;;22.18;54.93;99931.09;128283;1093;22340;-81
2021/08/02 09:59:08;;;;;;;5.18;2.45;;;;;;;22.31;54.29;99937.94;128345;1095;24492;-76
2021/08/02 10:01:39;;;;;;;4.23;3.13;;;;;;;22.40;53.91;99939.11;128296;1095;22345;-79
2021/08/02 10:04:10;;;;;;;6.77;2.77;;;;;;;22.48;53.33;99937.82;128249;1098;22357;-77
2021/08/02 10:06:42;;;;;;;5.60;2.80;;;;;;;22.58;53.32;99937.09;128171;1098;24985;-79
2021/08/02 10:09:13;;;;;;;6.15;2.40;;;;;;;22.79;52.67;99936.17;127981;1101;22478;-78
2021/08/02 10:11:43;;;;;;;2.85;1.68;;;;;;;22.83;52.10;99945.38;127827;1101;22375;-82
2021/08/02 10:14:14;;;;;;;66.18;10.13;;;;;;;22.81;51.35;99933.23;128207;1098;22396;-76
2021/08/02 10:16:47;;;;;;;102.43;17.58;;;;;;;22.73;51.27;99939.92;127981;1101;22400;-77
2021/08/02 10:19:19;;;;;;;9.60;2.60;;;;;;;22.66;51.02;99941.99;128037;1098;22388;-77
2021/08/02 10:21:49;;;;;;;6.15;2.50;;;;;;;22.54;50.77;99937.61;127952;1098;22376;-77
2021/08/02 10:24:18;;;;;;;4.28;2.33;;;;;;;22.48;51.03;99938.63;128228;1095;22358;-77
2021/08/02 10:26:57;;;;;;;2.10;1.50;;;;;;;22.46;50.33;99943.47;128553;1093;22362;-76
2021/08/02 10:29:41;;;;;;;10.05;2.58;;;;;;;22.41;50.65;99945.30;128711;1095;22438;-78
2021/08/02 10:32:27;;;;;;;8.33;4.13;;;;;;;22.47;51.10;99949.66;128615;1095;22367;-76
2021/08/02 10:34:59;;;;;;;6.95;2.48;;;;;;;22.52;50.80;99952.38;128548;1094;22618;-80
2021/08/02 10:37:35;;;;;;;6.90;1.93;;;;;;;22.45;50.63;99949.09;128340;1095;24509;-81
2021/08/02 10:40:14;;;;;;;8.25;3.08;;;;;;;22.46;51.52;99945.33;128486;1095;22353;-79
2021/08/02 10:42:52;;;;;;;7.68;2.60;;;;;;;22.50;51.12;99944.58;128595;1095;22343;-77
2021/08/02 10:45:33;;;;;;;4.08;1.93;;;;;;;22.42;50.67;99953.11;128726;1095;24486;-80
2021/08/02 10:48:03;;;;;;;;;;;;;;;22.26;49.81;99946.79;128603;1095;22354;-78
2021/08/02 10:50:40;;;;;;;3.35;1.60;;;;;;;22.11;50.54;99953.86;128261;1095;22987;-79
2021/08/02 10:53:17;;;;;;;7.03;1.70;;;;;;;22.01;50.75;99965.32;128591;1095;22343;-80
2021/08/02 10:55:53;;;;;;;7.15;1.70;;;;;;;21.95;50.60;99967.13;128318;1094;22352;-80
2021/08/02 10:58:40;;;;;;;2.65;1.83;;;;;;;21.88;50.37;99957.64;128298;1095;22343;-82
2021/08/02 11:01:14;;;;;;;4.55;1.90;;;;;;;21.82;50.73;99962.14;128809;1095;23119;-79
2021/08/02 11:03:44;;;;;;;4.53;1.80;;;;;;;21.82;51.17;99959.45;128345;1095;22367;-80
2021/08/02 11:06:34;;;;;;;6.55;2.15;;;;;;;21.87;50.74;99959.53;128302;1093;22367;-81
2021/08/02 11:09:04;;;;;;;4.18;1.90;;;;;;;21.93;50.88;99963.91;128459;1095;22775;-80
2021/08/02 11:11:49;;;;;;;3.23;1.90;;;;;;;21.89;50.86;99968.13;128575;1095;22346;-80
2021/08/02 11:14:22;;;;;;;5.80;2.13;;;;;;;21.88;51.47;99969.20;128348;1095;22359;-79
2021/08/02 11:16:53;;;;;;;4.68;2.35;;;;;;;21.97;52.00;99970.39;128582;1095;22352;-80
2021/08/02 11:19:28;;;;;;;;;;;;;;;22.04;52.44;99965.63;128055;1098;22359;-80
2021/08/02 11:21:58;;;;;;;4.85;2.88;;;;;;;22.04;52.27;99957.56;128257;1096;21559;-80
2021/08/02 11:24:32;;;;;;;4.58;2.13;;;;;;;22.03;51.99;99955.94;127952;1098;22478;-80
2021/08/02 11:27:08;;;;;;;3.75;1.78;;;;;;;22.13;52.22;99957.93;127944;1098;22384;-79
2021/08/02 11:29:38;;;;;;;8.78;2.23;;;;;;;22.21;51.66;99962.88;128016;1098;22359;-79
2021/08/02 11:32:11;;;;;;;4.48;1.93;;;;;;;22.24;51.57;99959.67;128140;1098;22379;-80
2021/08/02 11:34:44;;;;;;;3.93;1.55;;;;;;;22.22;51.55;99964.48;128004;1098;22355;-80
2021/08/02 11:37:16;;;;;;;3.90;1.50;;;;;;;22.25;51.29;99960.48;128089;1098;22382;-80
2021/08/02 11:39:59;;;;;;;2.28;1.35;;;;;;;22.28;51.25;99966.17;128069;1098;22362;-79
2021/08/02 11:42:31;;;;;;;9.08;2.05;;;;;;;22.36;50.92;99956.84;128321;1095;22349;-81
2021/08/02 11:45:05;;;;;;;2.28;1.30;;;;;;;22.41;50.65;99956.06;128306;1095;22506;-80
2021/08/02 11:47:46;;;;;;;2.38;1.35;;;;;;;22.47;50.25;99949.66;128378;1095;22342;-81